Hawstone, Pennsylvania
Current Conditions -  °F | °C
As of 2:15 AM on Thursday 18 Dec 2014 (Local Time) from KUNV Reporting Station
Overcast Overcast  
Wind Chill: 21°   Ceiling: 4200
Heat Index: 30°   Visibility: 10mi
Dew Point: 20°   Wind: 12mph
Humidity: 66%   Direction: 270°W
Pressure: 30.05"   Gusts: 24mph
Location:  40.6073°N, 77.5812°W
Report Text: KUNV 180715Z AUTO 27010G21KT 10SM SCT035 OVC042 M01/M07 A3005 RMK AO2 T10101066
Loading
Personal Weather Stations






























Interactive Weather Map New forecast layout! Learn more

10-Day Weather Forecast

Advertisements
Track Severe Weather on mobile